createdAt,value
2017-04-13T00:22:22.049Z,90.50
2017-04-13T00:23:22.018Z,90.40
2017-04-13T00:24:22.683Z,90.20
2017-04-13T00:25:22.838Z,90.10
2017-04-13T00:30:42.837Z,89.60
2017-04-13T00:32:00.150Z,90.00
2017-04-13T00:33:06.593Z,90.10
2017-04-13T00:34:06.508Z,90.10
2017-04-13T00:35:06.398Z,90.30
2017-04-13T00:36:06.346Z,90.20
2017-04-13T00:37:06.272Z,90.20
2017-04-13T00:38:06.207Z,90.70
2017-04-13T00:39:06.159Z,90.50
2017-04-13T00:40:06.081Z,91.00
2017-04-13T00:41:05.994Z,90.60
2017-04-13T00:42:05.983Z,90.70
2017-04-13T00:43:06.597Z,90.70
2017-04-13T00:44:06.815Z,90.50
2017-04-13T00:45:07.477Z,90.70
2017-04-13T00:46:07.443Z,90.70
2017-04-13T00:47:08.073Z,90.80
2017-04-13T00:48:07.958Z,90.70
2017-04-13T00:49:07.861Z,90.90
2017-04-13T00:50:08.482Z,90.70
2017-04-13T00:51:09.150Z,90.60
2017-04-13T00:52:09.061Z,90.70
2017-04-13T00:53:09.024Z,90.80
2017-04-13T00:54:08.923Z,91.30
2017-04-13T00:55:08.833Z,91.10
2017-04-13T00:56:08.737Z,91.00
2017-04-13T00:57:08.635Z,91.00
2017-04-13T00:58:08.541Z,90.50
2017-04-13T00:59:08.426Z,90.60
2017-04-13T01:00:08.361Z,90.80
2017-04-13T01:01:08.321Z,90.40
2017-04-13T01:02:08.363Z,90.50
2017-04-13T01:03:09.029Z,90.40
2017-04-13T01:04:08.943Z,90.40
2017-04-13T01:05:08.880Z,90.30
2017-04-13T01:06:09.549Z,90.30
2017-04-13T01:07:09.490Z,90.40
2017-04-13T01:08:09.416Z,90.20
2017-04-13T01:09:10.041Z,90.00
2017-04-13T01:10:10.680Z,90.00
2017-04-13T01:11:10.560Z,90.00
2017-04-13T01:12:11.274Z,89.90
2017-04-13T01:13:11.175Z,90.00
2017-04-13T01:14:11.077Z,89.70
2017-04-13T01:15:10.968Z,89.70
2017-04-13T01:16:10.853Z,90.00
2017-04-13T01:17:10.868Z,90.00
2017-04-13T01:18:10.757Z,89.50
2017-04-13T01:19:10.749Z,89.80
2017-04-13T01:20:10.658Z,89.90
2017-04-13T01:21:10.581Z,89.60
2017-04-13T01:22:10.513Z,89.60
2017-04-13T01:24:10.547Z,89.10
2017-04-13T01:25:11.186Z,89.70
2017-04-13T01:26:11.089Z,89.60
2017-04-13T01:27:10.982Z,89.00
2017-04-13T01:28:10.940Z,88.30
2017-04-13T01:29:10.845Z,88.80
2017-04-13T01:30:10.761Z,88.70
2017-04-13T01:31:10.653Z,88.10
2017-04-13T01:32:10.606Z,89.30
2017-04-13T01:33:11.249Z,88.90
2017-04-13T01:34:11.181Z,88.50
2017-04-13T01:35:11.113Z,88.00
2017-04-13T01:36:11.038Z,88.90
2017-04-13T01:37:11.779Z,88.00
2017-04-13T01:38:12.460Z,88.90
2017-04-13T01:39:12.389Z,88.70
2017-04-13T01:40:13.061Z,88.80
2017-04-13T01:41:12.981Z,89.10
2017-04-13T01:42:12.883Z,89.50
2017-04-13T01:43:12.772Z,88.10
2017-04-13T01:44:12.690Z,88.40
2017-04-13T01:45:12.614Z,88.30
2017-04-13T01:46:12.533Z,87.40
2017-04-13T01:47:13.191Z,88.70
2017-04-13T01:48:13.084Z,88.20
2017-04-13T01:49:12.988Z,87.60
2017-04-13T01:50:12.881Z,88.60
2017-04-13T01:51:12.849Z,87.40
2017-04-13T01:52:12.788Z,87.70
2017-04-13T01:53:13.426Z,87.80
2017-04-13T01:54:13.393Z,87.60
2017-04-13T01:55:13.323Z,88.80
2017-04-13T01:56:13.305Z,89.10
2017-04-13T01:57:13.217Z,89.40
2017-04-13T01:58:13.855Z,89.10
2017-04-13T01:59:13.759Z,88.30
2017-04-13T02:00:13.665Z,89.90
2017-04-13T02:01:14.373Z,88.20
2017-04-13T02:02:14.313Z,89.50
2017-04-13T02:03:14.205Z,88.30
2017-04-13T02:04:14.096Z,89.40
2017-04-13T02:05:14.724Z,89.10
2017-04-13T02:06:14.685Z,88.40
2017-04-13T02:07:14.570Z,88.60
2017-04-13T02:08:14.505Z,89.80
2017-04-13T02:09:14.434Z,88.80
2017-04-13T02:10:14.488Z,88.80
2017-04-13T02:11:14.405Z,88.90
2017-04-13T02:12:14.319Z,90.00
2017-04-13T02:13:14.252Z,89.80
2017-04-13T02:14:14.969Z,90.00
2017-04-13T02:15:14.854Z,89.30
2017-04-13T02:16:14.984Z,89.30
2017-04-13T02:17:15.664Z,89.90
2017-04-13T02:18:15.632Z,89.10
2017-04-13T02:19:16.259Z,90.00
2017-04-13T02:20:16.180Z,89.30
2017-04-13T02:21:17.044Z,89.00
2017-04-13T02:22:16.973Z,89.50
2017-04-13T02:23:17.594Z,89.00
2017-04-13T02:24:18.210Z,89.80
2017-04-13T02:25:18.172Z,89.90
2017-04-13T02:26:18.911Z,90.00
2017-04-13T02:27:18.833Z,90.00
2017-04-13T02:28:18.705Z,90.00
2017-04-13T02:29:18.613Z,90.00
2017-04-13T02:30:18.565Z,90.00
2017-04-13T02:31:19.385Z,90.00
2017-04-13T02:32:20.017Z,90.40
2017-04-13T02:33:19.944Z,90.00
2017-04-13T02:34:19.825Z,90.20
2017-04-13T02:35:19.743Z,90.20
2017-04-13T02:36:19.632Z,90.20
2017-04-13T02:37:20.273Z,90.00
2017-04-13T02:38:20.197Z,90.20
2017-04-13T02:39:20.106Z,90.40
2017-04-13T02:40:19.986Z,90.40
2017-04-13T02:41:19.892Z,90.40
2017-04-13T02:42:19.794Z,90.30
2017-04-13T02:43:19.677Z,90.30
2017-04-13T02:44:20.328Z,90.20
2017-04-13T02:45:20.615Z,90.30
2017-04-13T02:46:20.818Z,90.50
2017-04-13T02:47:21.562Z,90.40
2017-04-13T02:48:22.190Z,90.60
2017-04-13T02:49:22.070Z,90.30
2017-04-13T02:50:22.717Z,90.30
2017-04-13T02:51:22.665Z,90.60
2017-04-13T02:52:22.575Z,90.40
2017-04-13T02:53:22.468Z,90.50
2017-04-13T02:54:22.361Z,90.70
2017-04-13T02:55:22.245Z,90.40
2017-04-13T02:56:22.201Z,90.40
2017-04-13T02:57:22.139Z,90.70
2017-04-13T02:58:22.761Z,90.50
2017-04-13T02:59:22.649Z,90.30
2017-04-13T03:00:23.340Z,90.60
2017-04-13T03:01:23.588Z,90.50
2017-04-13T03:02:24.208Z,90.40
2017-04-13T03:03:24.092Z,90.40
2017-04-13T03:04:24.023Z,90.50
2017-04-13T03:05:23.922Z,90.80
2017-04-13T03:06:24.613Z,90.80
2017-04-13T03:07:24.517Z,90.70
2017-04-13T03:08:24.412Z,90.50
2017-04-13T03:09:24.289Z,90.70
2017-04-13T03:10:24.173Z,90.60
2017-04-13T03:11:24.101Z,90.90
2017-04-13T03:12:23.991Z,90.50
2017-04-13T03:13:23.904Z,90.70
2017-04-13T03:14:23.771Z,90.70
2017-04-13T03:15:24.392Z,90.50
2017-04-13T03:16:24.476Z,90.60
2017-04-13T03:17:24.385Z,90.40
2017-04-13T03:18:24.289Z,90.40
2017-04-13T03:19:24.164Z,90.00
2017-04-13T03:20:24.045Z,90.50
2017-04-13T03:21:23.936Z,90.30
2017-04-13T03:22:23.909Z,90.50
2017-04-13T03:23:23.795Z,90.40
2017-04-13T03:24:23.706Z,90.50
2017-04-13T03:25:23.562Z,90.40
2017-04-13T03:26:23.431Z,90.50
2017-04-13T03:27:23.379Z,90.60
2017-04-13T03:28:23.350Z,90.50
2017-04-13T03:29:23.951Z,90.50
2017-04-13T03:30:23.819Z,90.50
2017-04-13T03:31:23.793Z,90.50
2017-04-13T03:32:23.748Z,90.60
2017-04-13T03:33:23.711Z,90.70
2017-04-13T03:34:24.287Z,90.70
2017-04-13T03:35:24.235Z,90.90
2017-04-13T03:36:24.155Z,91.00
2017-04-13T03:37:24.106Z,90.80
2017-04-13T03:38:24.036Z,90.80
2017-04-13T03:39:24.762Z,90.70
2017-04-13T03:40:25.415Z,90.90
2017-04-13T03:41:25.318Z,91.10
2017-04-13T03:42:25.259Z,91.10
2017-04-13T03:43:25.152Z,90.70
2017-04-13T03:44:25.048Z,90.70
2017-04-13T03:45:24.943Z,90.90
2017-04-13T03:46:24.848Z,90.70
2017-04-13T03:47:24.815Z,90.80
2017-04-13T03:48:24.755Z,90.70
2017-04-13T03:49:24.659Z,90.70
2017-04-13T03:50:24.587Z,90.80
2017-04-13T03:51:24.516Z,90.90
2017-04-13T03:52:24.435Z,91.00
2017-04-13T03:53:25.135Z,91.00
2017-04-13T03:54:25.077Z,91.00
2017-04-13T03:55:25.727Z,91.20
2017-04-13T03:56:25.635Z,91.10
2017-04-13T03:57:25.642Z,91.20
2017-04-13T03:58:25.559Z,91.10
2017-04-13T03:59:25.460Z,90.50
2017-04-13T04:00:25.395Z,90.80
2017-04-13T04:01:25.316Z,90.40
2017-04-13T04:02:25.209Z,90.80
2017-04-13T04:03:25.675Z,90.50
2017-04-13T04:04:25.587Z,90.60
2017-04-13T04:05:25.516Z,90.80
2017-04-13T04:06:25.466Z,90.90
2017-04-13T04:07:26.124Z,91.00
2017-04-13T04:08:26.155Z,90.90
2017-04-13T04:09:26.203Z,90.90
2017-04-13T04:10:27.144Z,91.00
2017-04-13T04:11:27.060Z,91.10
2017-04-13T04:12:26.998Z,90.90
2017-04-13T04:13:26.920Z,91.00
2017-04-13T04:14:26.815Z,90.90
2017-04-13T04:15:26.728Z,90.50
2017-04-13T04:16:26.653Z,90.50
2017-04-13T04:17:26.593Z,90.50
2017-04-13T04:18:26.867Z,90.80
2017-04-13T04:19:27.547Z,91.00
2017-04-13T04:20:27.459Z,90.70
2017-04-13T04:21:27.386Z,90.20
2017-04-13T04:22:27.331Z,90.20
2017-04-13T04:23:27.264Z,90.70
2017-04-13T04:24:27.168Z,90.80
2017-04-13T04:25:27.123Z,90.80
2017-04-13T04:26:27.047Z,91.00
2017-04-13T04:27:26.971Z,90.40
2017-04-13T04:28:26.916Z,90.70
2017-04-13T04:29:26.842Z,90.70
2017-04-13T04:30:26.762Z,90.30
2017-04-13T04:31:26.676Z,90.30
2017-04-13T04:32:26.584Z,90.20
2017-04-13T04:33:26.515Z,91.00
2017-04-13T04:34:26.454Z,90.10
2017-04-13T04:35:27.093Z,90.20
2017-04-13T04:36:26.974Z,90.70
2017-04-13T04:37:27.590Z,90.40
2017-04-13T04:38:27.462Z,90.20
2017-04-13T04:39:27.395Z,90.00
2017-04-13T04:40:27.330Z,90.10
2017-04-13T04:41:27.210Z,90.50
2017-04-13T04:42:27.143Z,90.20
2017-04-13T04:43:27.031Z,90.20
2017-04-13T04:44:27.972Z,90.10
2017-04-13T04:45:27.842Z,90.00
2017-04-13T04:47:27.788Z,90.70
2017-04-13T04:48:27.655Z,90.80
2017-04-13T04:49:27.552Z,91.00
2017-04-13T04:50:27.494Z,91.00
2017-04-13T04:51:27.404Z,90.40
2017-04-13T04:52:27.282Z,90.50
2017-04-13T04:53:27.915Z,90.10
2017-04-13T04:54:27.783Z,90.60
2017-04-13T04:55:27.698Z,90.80
2017-04-13T04:56:27.574Z,90.90
2017-04-13T04:57:27.459Z,90.80
2017-04-13T04:58:27.387Z,90.60
2017-04-13T04:59:27.265Z,90.50
2017-04-13T05:00:27.175Z,90.40
2017-04-13T05:01:27.043Z,90.50
2017-04-13T05:02:26.911Z,90.70
2017-04-13T05:03:26.843Z,90.80
2017-04-13T05:04:26.727Z,90.70
2017-04-13T05:05:26.635Z,90.60
2017-04-13T05:06:26.527Z,90.60
2017-04-13T05:07:26.516Z,90.60
2017-04-13T05:08:26.439Z,90.70
2017-04-13T05:09:26.327Z,90.50
2017-04-13T05:10:26.279Z,90.60
2017-04-13T05:11:26.127Z,90.70
2017-04-13T05:12:26.011Z,90.80
2017-04-13T05:13:25.875Z,90.60
2017-04-13T05:14:25.766Z,90.20
2017-04-13T05:15:32.371Z,90.30
2017-04-13T05:16:32.275Z,90.50
2017-04-13T05:17:32.306Z,90.40
2017-04-13T05:18:32.198Z,90.40
2017-04-13T05:19:32.075Z,90.10
2017-04-13T05:20:31.981Z,90.30
2017-04-13T05:21:31.877Z,90.30
2017-04-13T05:22:31.778Z,90.10
2017-04-13T05:23:31.655Z,89.70
2017-04-13T05:24:31.531Z,90.00
2017-04-13T05:25:31.409Z,90.40
2017-04-13T05:26:32.068Z,89.80
2017-04-13T05:27:31.949Z,89.40
2017-04-13T05:28:31.831Z,89.60
2017-04-13T05:29:32.518Z,89.20
2017-04-13T05:30:32.390Z,90.10
2017-04-13T05:31:32.296Z,89.60
2017-04-13T05:32:32.208Z,89.00
2017-04-13T05:33:32.102Z,89.20
2017-04-13T05:34:32.022Z,88.00
2017-04-13T05:35:31.996Z,88.50
2017-04-13T05:36:31.967Z,88.10
2017-04-13T05:37:31.876Z,89.00
2017-04-13T05:38:31.770Z,87.90
2017-04-13T05:39:31.667Z,89.20
2017-04-13T05:40:31.595Z,88.70
2017-04-13T05:41:31.827Z,88.90
2017-04-13T05:42:31.807Z,89.50
2017-04-13T05:43:31.803Z,88.00
2017-04-13T05:44:31.750Z,87.70
2017-04-13T05:45:32.449Z,88.60
2017-04-13T05:46:32.395Z,87.50
2017-04-13T05:47:32.298Z,87.50
2017-04-13T05:48:32.289Z,87.30
2017-04-13T05:49:33.003Z,87.30
2017-04-13T05:50:33.685Z,87.20
2017-04-13T05:51:33.863Z,87.50
2017-04-13T05:52:34.239Z,87.50
2017-04-13T05:53:34.913Z,87.70
2017-04-13T05:54:34.815Z,86.90
2017-04-13T05:55:34.744Z,86.10
2017-04-13T05:56:34.686Z,85.70
2017-04-13T05:57:35.335Z,86.10
2017-04-13T05:58:35.275Z,86.30
2017-04-13T05:59:35.207Z,86.70
2017-04-13T06:00:35.128Z,86.20
2017-04-13T06:01:35.347Z,86.00
2017-04-13T06:02:35.303Z,85.90
2017-04-13T06:03:35.222Z,86.00
2017-04-13T06:04:35.135Z,86.20
2017-04-13T06:05:35.073Z,85.60
2017-04-13T06:06:35.007Z,85.10
2017-04-13T06:07:34.947Z,84.70
2017-04-13T06:08:34.878Z,85.30
2017-04-13T06:09:34.811Z,84.80
2017-04-13T06:10:34.731Z,85.20
2017-04-13T06:11:34.661Z,85.30
2017-04-13T06:53:04.035Z,82.10
2017-04-13T06:54:03.932Z,81.90
2017-04-13T06:55:03.883Z,81.60
2017-04-13T06:56:03.845Z,81.60
2017-04-13T06:57:04.519Z,81.60
2017-04-13T06:58:04.426Z,81.50
2017-04-13T06:59:04.350Z,81.00
2017-04-13T07:00:04.243Z,81.10
2017-04-13T07:01:04.171Z,81.20
2017-04-13T07:02:04.825Z,81.20
2017-04-13T07:03:04.739Z,81.20
2017-04-13T07:04:04.679Z,81.20
2017-04-13T07:05:04.547Z,81.20
2017-04-13T07:06:04.432Z,81.50
2017-04-13T07:07:04.388Z,81.40
2017-04-13T07:08:04.395Z,81.10
2017-04-13T07:09:05.378Z,80.90
2017-04-13T07:10:05.331Z,81.00
2017-04-13T07:11:05.275Z,80.80
2017-04-13T07:12:05.335Z,81.00
2017-04-13T07:13:05.315Z,80.80
2017-04-13T07:14:05.242Z,80.90
2017-04-13T07:15:05.138Z,81.10
2017-04-13T07:16:05.109Z,81.20
2017-04-13T07:17:05.180Z,81.60
2017-04-13T07:18:05.167Z,81.90
2017-04-13T07:19:05.232Z,81.50
2017-04-13T07:20:05.203Z,82.30
2017-04-13T07:21:05.390Z,82.30
2017-04-13T07:22:05.473Z,81.70
2017-04-13T07:23:05.435Z,81.60
2017-04-13T07:24:05.446Z,81.50
2017-04-13T07:25:06.103Z,81.00
2017-04-13T07:26:06.044Z,80.30
2017-04-13T07:27:05.954Z,80.50
2017-04-13T07:28:06.043Z,80.50
2017-04-13T07:29:06.215Z,79.90
2017-04-13T07:30:06.939Z,80.00
2017-04-13T07:31:06.945Z,79.80
2017-04-13T07:32:06.954Z,80.10
2017-04-13T07:33:07.586Z,80.00
2017-04-13T07:34:07.566Z,79.80
2017-04-13T07:35:08.265Z,80.00
2017-04-13T07:36:08.178Z,80.00
2017-04-13T07:37:08.930Z,80.00
2017-04-13T07:38:09.579Z,79.70
2017-04-13T07:39:09.567Z,79.60
2017-04-13T07:40:09.491Z,79.60
2017-04-13T07:41:09.459Z,79.50
2017-04-13T07:42:09.368Z,79.60
2017-04-13T07:43:09.281Z,79.50
2017-04-13T07:44:09.285Z,79.50
2017-04-13T07:45:10.112Z,79.30
2017-04-13T07:46:10.852Z,79.10
2017-04-13T07:47:10.796Z,80.10
2017-04-13T07:48:10.911Z,79.00
2017-04-13T07:49:10.860Z,78.60
2017-04-13T07:50:10.827Z,78.80
2017-04-13T07:51:11.446Z,79.00
2017-04-13T07:52:11.403Z,79.10
2017-04-13T07:53:11.397Z,79.90
2017-04-13T07:54:12.198Z,80.00
2017-04-13T07:55:12.174Z,80.30
2017-04-13T07:56:12.187Z,79.40
2017-04-13T07:57:12.199Z,78.50
2017-04-13T07:58:12.204Z,78.00
2017-04-13T07:59:12.255Z,77.80
2017-04-13T08:00:12.230Z,77.70
2017-04-13T08:01:12.215Z,78.30
2017-04-13T08:02:12.204Z,77.50
2017-04-13T08:03:12.227Z,77.30
2017-04-13T08:04:12.235Z,77.60
2017-04-13T08:05:12.239Z,77.00
2017-04-13T08:06:12.166Z,77.40
2017-04-13T08:07:12.895Z,77.30
2017-04-13T08:08:12.791Z,76.40
2017-04-13T08:09:12.824Z,76.30
2017-04-13T08:10:12.752Z,76.40
2017-04-13T08:11:12.656Z,76.30
2017-04-13T08:12:12.695Z,75.60
2017-04-13T08:13:12.590Z,75.10
2017-04-13T08:14:12.659Z,75.40
2017-04-13T08:15:13.283Z,74.80
2017-04-13T08:16:13.231Z,75.20
2017-04-13T08:17:13.135Z,74.60
2017-04-13T08:18:13.075Z,74.50
2017-04-13T08:19:13.790Z,74.90
2017-04-13T08:20:13.743Z,74.70
2017-04-13T08:21:13.667Z,74.80
2017-04-13T08:22:13.595Z,74.80
2017-04-13T08:23:13.640Z,74.20
2017-04-13T08:24:14.300Z,74.60
2017-04-13T08:25:14.227Z,74.90
2017-04-13T08:26:14.227Z,74.80
2017-04-13T08:27:14.177Z,74.60
2017-04-13T08:28:14.062Z,74.20
2017-04-13T08:29:14.737Z,74.20
2017-04-13T08:30:14.648Z,73.50
2017-04-13T08:31:14.563Z,72.90
2017-04-13T08:32:14.518Z,72.60
2017-04-13T08:33:14.516Z,72.50
2017-04-13T08:34:15.195Z,72.70
2017-04-13T08:35:15.143Z,72.10
2017-04-13T08:36:15.805Z,71.70
2017-04-13T08:37:15.713Z,71.20
2017-04-13T08:38:15.627Z,68.80
2017-04-13T08:39:15.616Z,67.20
2017-04-13T08:40:15.603Z,66.50
2017-04-13T08:41:15.499Z,65.70
2017-04-13T08:42:15.507Z,66.70
2017-04-13T08:43:16.147Z,66.90
2017-04-13T08:44:16.063Z,66.60
2017-04-13T08:45:15.955Z,66.30
2017-04-13T08:46:15.943Z,65.70
2017-04-13T08:47:15.864Z,65.80
2017-04-13T08:48:15.755Z,65.00
2017-04-13T08:49:15.658Z,64.90
2017-04-13T08:50:15.575Z,65.30
2017-04-13T08:51:15.541Z,64.20
2017-04-13T08:52:15.484Z,63.40
2017-04-13T08:53:15.399Z,63.60
2017-04-13T08:54:15.312Z,64.40
2017-04-13T08:55:15.259Z,64.90
2017-04-13T08:56:15.171Z,65.10
2017-04-13T08:57:15.522Z,66.10
2017-04-13T08:58:15.407Z,63.80
2017-04-13T08:59:15.394Z,63.60
2017-04-13T09:00:16.095Z,63.10
2017-04-13T09:01:15.976Z,63.60
2017-04-13T09:02:16.004Z,64.10
2017-04-13T09:03:15.953Z,64.40
2017-04-13T09:04:16.584Z,64.30
2017-04-13T09:05:16.582Z,64.60
2017-04-13T09:06:16.471Z,65.80
2017-04-13T09:07:17.154Z,64.90
2017-04-13T09:08:17.059Z,65.60
2017-04-13T09:09:16.971Z,65.20
2017-04-13T09:10:16.957Z,65.10
2017-04-13T09:11:16.904Z,65.00
2017-04-13T09:12:16.807Z,65.00
2017-04-13T09:13:17.475Z,65.70
2017-04-13T09:14:17.383Z,66.10
2017-04-13T09:15:17.311Z,66.30
2017-04-13T09:16:17.251Z,66.60
2017-04-13T09:17:17.907Z,66.00
2017-04-13T09:18:17.876Z,66.20
2017-04-13T09:19:18.498Z,66.00
2017-04-13T09:20:18.441Z,65.90
2017-04-13T09:21:18.342Z,65.50
2017-04-13T09:22:18.270Z,66.30
2017-04-13T09:23:18.189Z,65.40
2017-04-13T09:24:18.086Z,65.20
2017-04-13T09:25:18.055Z,65.20
2017-04-13T09:26:18.035Z,65.40
2017-04-13T09:27:17.926Z,65.40
2017-04-13T09:28:17.864Z,65.10
2017-04-13T09:29:18.586Z,65.80
2017-04-13T09:30:19.308Z,66.60
2017-04-13T09:31:20.032Z,66.90
2017-04-13T09:32:20.655Z,66.50
2017-04-13T09:33:20.589Z,66.40
2017-04-13T09:34:20.516Z,66.70
2017-04-13T09:35:20.398Z,67.30
2017-04-13T09:36:20.331Z,67.30
2017-04-13T09:37:20.283Z,67.70
2017-04-13T09:38:20.247Z,68.40
2017-04-13T09:39:20.136Z,67.70
2017-04-13T09:40:20.146Z,67.80
2017-04-13T09:41:20.081Z,67.80
2017-04-13T09:42:20.749Z,67.60
2017-04-13T09:43:20.627Z,66.60
2017-04-13T09:44:21.322Z,66.70
2017-04-13T09:45:21.243Z,66.00
2017-04-13T09:46:21.878Z,65.50
2017-04-13T09:47:21.784Z,64.90
2017-04-13T09:48:21.661Z,64.40
2017-04-13T09:49:22.327Z,63.30
2017-04-13T09:50:22.243Z,63.00
2017-04-13T09:51:22.152Z,63.30
2017-04-13T09:52:22.079Z,63.00
2017-04-13T09:53:22.022Z,62.50
2017-04-13T09:54:21.921Z,61.90
2017-04-13T09:55:21.838Z,61.50
2017-04-13T09:56:21.743Z,62.20
2017-04-13T09:57:21.679Z,61.60
2017-04-13T09:58:21.623Z,61.40
2017-04-13T09:59:21.499Z,61.40
2017-04-13T10:00:21.569Z,62.00
2017-04-13T10:01:22.255Z,61.40
2017-04-13T10:02:22.150Z,60.90
2017-04-13T10:03:22.084Z,60.70
2017-04-13T10:04:21.975Z,61.30
2017-04-13T10:05:22.567Z,61.20
2017-04-13T10:06:22.535Z,61.50
2017-04-13T10:07:22.445Z,61.00
2017-04-13T10:08:22.374Z,60.50
2017-04-13T10:09:22.255Z,61.40
2017-04-13T10:10:22.168Z,60.80
2017-04-13T10:11:22.113Z,59.90
2017-04-13T10:12:21.978Z,59.80
2017-04-13T10:13:21.902Z,58.90
2017-04-13T10:14:21.768Z,58.40
2017-04-13T10:15:21.723Z,56.70
2017-04-13T10:16:21.698Z,54.70
2017-04-13T10:17:21.606Z,53.90
2017-04-13T10:18:21.518Z,53.40
2017-04-13T10:19:21.404Z,52.00
2017-04-13T10:20:21.308Z,51.40
2017-04-13T10:21:21.207Z,50.40
2017-04-13T10:22:21.156Z,48.70
2017-04-13T10:23:21.126Z,47.90
2017-04-13T10:24:21.026Z,46.60
2017-04-13T10:25:20.892Z,45.90
2017-04-13T10:26:20.768Z,45.40
2017-04-13T10:27:20.647Z,43.80
2017-04-13T10:28:20.719Z,42.20
2017-04-13T10:29:21.348Z,42.20
2017-04-13T10:30:21.347Z,42.50
2017-04-13T10:31:21.923Z,42.30
2017-04-13T10:32:21.899Z,42.80
2017-04-13T10:33:21.843Z,43.50
2017-04-13T10:34:21.843Z,45.10
2017-04-13T10:35:21.735Z,46.20
2017-04-13T10:36:21.651Z,47.40
2017-04-13T10:37:21.607Z,48.00
2017-04-13T10:38:21.511Z,49.10
2017-04-13T10:39:21.427Z,49.90
2017-04-13T10:40:21.337Z,49.60
2017-04-13T10:41:21.226Z,50.50
2017-04-13T10:42:21.151Z,51.30
2017-04-13T10:43:21.016Z,52.00
2017-04-13T10:44:21.666Z,52.80
2017-04-13T10:45:22.024Z,52.90
2017-04-13T10:46:21.904Z,52.70
2017-04-13T10:47:21.819Z,53.00
2017-04-13T10:48:21.788Z,53.20
2017-04-13T10:49:21.727Z,53.70
2017-04-13T10:50:21.651Z,53.70
2017-04-13T10:51:21.558Z,53.80
2017-04-13T10:52:21.480Z,54.00
2017-04-13T10:53:21.401Z,54.00
2017-04-13T10:54:21.301Z,54.50
2017-04-13T10:55:21.219Z,54.80
2017-04-13T10:56:21.105Z,55.00
2017-04-13T10:57:21.787Z,54.40
2017-04-13T10:58:21.739Z,55.10
2017-04-13T10:59:21.662Z,55.00
2017-04-13T11:00:21.548Z,55.30
2017-04-13T11:01:21.467Z,55.40
2017-04-13T11:02:21.439Z,55.30
2017-04-13T11:03:21.313Z,55.60
2017-04-13T11:04:21.211Z,55.40
2017-04-13T11:05:21.119Z,56.20
2017-04-13T11:06:21.060Z,56.10
2017-04-13T11:07:21.067Z,56.20
2017-04-13T11:08:20.987Z,56.20
2017-04-13T11:09:20.931Z,56.90
2017-04-13T11:10:20.853Z,56.10
2017-04-13T11:11:20.831Z,56.20
2017-04-13T11:12:20.859Z,56.30
2017-04-13T11:13:20.813Z,56.20
2017-04-13T11:14:21.503Z,56.20
2017-04-13T11:15:21.715Z,56.20
2017-04-13T11:16:21.607Z,55.70
2017-04-13T11:17:21.655Z,55.90
2017-04-13T11:18:21.615Z,55.20
2017-04-13T11:20:21.767Z,54.70
2017-04-13T11:21:21.714Z,54.30
2017-04-13T11:22:21.727Z,54.10
2017-04-13T11:23:21.907Z,54.50
2017-04-13T11:24:22.733Z,54.20
2017-04-13T11:25:22.671Z,54.80
2017-04-13T11:26:22.666Z,54.90
2017-04-13T11:27:22.696Z,54.70
2017-04-13T11:28:22.924Z,54.40
2017-04-13T11:29:22.908Z,54.00
2017-04-13T11:30:22.835Z,53.70
2017-04-13T11:31:22.845Z,53.30
2017-04-13T11:32:22.811Z,53.00
2017-04-13T11:33:22.789Z,53.00
2017-04-13T11:34:22.735Z,52.30
2017-04-13T11:35:23.652Z,50.90
2017-04-13T11:36:23.598Z,48.90
2017-04-13T11:37:23.567Z,47.70
2017-04-13T11:38:23.543Z,46.40
2017-04-13T11:39:23.447Z,45.70
2017-04-13T11:40:23.390Z,45.60
2017-04-13T11:41:23.319Z,46.50
2017-04-13T11:43:23.389Z,45.60
2017-04-13T11:44:23.294Z,46.10
2017-04-13T11:45:23.230Z,46.50
2017-04-13T11:46:23.206Z,46.80
2017-04-13T11:47:23.151Z,47.50
2017-04-13T11:48:23.170Z,48.00
2017-04-13T11:49:23.097Z,48.20
2017-04-13T11:50:23.043Z,48.40
2017-04-13T11:51:22.995Z,48.40
2017-04-13T11:52:22.983Z,48.70
2017-04-13T11:53:22.923Z,48.80
2017-04-13T11:54:23.671Z,49.10
2017-04-13T11:55:23.573Z,49.90
2017-04-13T11:56:23.544Z,50.60
2017-04-13T11:57:23.495Z,50.60
2017-04-13T11:58:23.467Z,51.30
2017-04-13T11:59:23.407Z,51.30
2017-04-13T12:00:23.431Z,51.20
2017-04-13T12:01:23.454Z,51.00
2017-04-13T12:02:23.438Z,50.70
2017-04-13T12:03:23.342Z,50.80
2017-04-13T12:04:23.322Z,50.60
2017-04-13T12:05:23.271Z,50.00
2017-04-13T12:06:23.214Z,48.80
2017-04-13T12:07:23.942Z,47.20
2017-04-13T12:08:23.903Z,44.60
2017-04-13T12:09:23.791Z,42.10
2017-04-13T12:10:23.739Z,39.90
2017-04-13T12:11:23.681Z,36.80
2017-04-13T12:12:23.603Z,35.10
2017-04-13T12:13:23.513Z,35.20
2017-04-13T12:14:23.469Z,36.40
2017-04-13T12:15:24.112Z,37.50
2017-04-13T12:16:24.004Z,38.70
2017-04-13T12:17:23.875Z,39.60
2017-04-13T12:18:23.781Z,40.50
2017-04-13T12:19:23.695Z,41.20
2017-04-13T12:20:24.083Z,41.80
2017-04-13T12:21:23.991Z,43.00
2017-04-13T12:22:23.920Z,43.10
2017-04-13T12:23:23.788Z,43.10
2017-04-13T12:24:23.693Z,43.40
2017-04-13T12:25:23.603Z,43.80
2017-04-13T12:26:23.547Z,43.40
2017-04-13T12:27:24.163Z,42.60
2017-04-13T12:28:24.851Z,41.80
2017-04-13T12:29:24.778Z,40.90
2017-04-13T12:30:24.688Z,40.30
2017-04-13T12:31:24.625Z,39.90
2017-04-13T12:32:24.535Z,40.00
2017-04-13T12:33:24.459Z,39.60
2017-04-13T12:34:24.359Z,39.10
2017-04-13T12:35:24.263Z,39.50
2017-04-13T12:36:24.255Z,40.60
2017-04-13T12:37:24.257Z,41.60
2017-04-13T12:38:24.271Z,42.60
2017-04-13T12:39:24.237Z,42.90
2017-04-13T12:40:24.229Z,42.90
2017-04-13T12:41:24.683Z,42.70
2017-04-13T12:42:24.623Z,42.80
2017-04-13T12:43:25.100Z,42.70
2017-04-13T12:44:25.101Z,42.80
2017-04-13T12:45:26.142Z,43.10
2017-04-13T12:46:26.246Z,44.00
2017-04-13T12:47:26.976Z,44.10
2017-04-13T12:48:26.906Z,44.10
2017-04-13T12:49:26.811Z,44.50
2017-04-13T12:50:26.807Z,44.70
2017-04-13T12:51:26.681Z,45.70
2017-04-13T12:52:27.351Z,45.90
2017-04-13T12:53:27.235Z,46.30
2017-04-13T12:54:27.172Z,46.20
2017-04-13T12:55:27.319Z,46.40
2017-04-13T12:56:27.184Z,46.20
2017-04-13T12:57:27.117Z,46.30
2017-04-13T12:58:27.571Z,46.20
2017-04-13T12:59:27.562Z,46.70
2017-04-13T13:00:28.195Z,46.80
2017-04-13T13:01:28.098Z,47.20
2017-04-13T13:02:27.980Z,47.40
2017-04-13T13:03:28.660Z,47.30
2017-04-13T13:04:28.536Z,47.30
2017-04-13T13:05:28.497Z,47.70
2017-04-13T13:06:28.369Z,48.00
2017-04-13T13:07:28.451Z,48.10
2017-04-13T13:08:28.338Z,48.10
2017-04-13T13:09:28.345Z,48.50
2017-04-13T13:10:29.032Z,48.60
2017-04-13T13:11:29.075Z,48.60
2017-04-13T13:12:28.979Z,48.90
2017-04-13T13:13:28.875Z,48.50
2017-04-13T13:14:29.540Z,47.50
2017-04-13T13:15:29.487Z,47.20
2017-04-13T13:16:29.422Z,46.80
2017-04-13T13:17:30.063Z,46.90
2017-04-13T13:18:29.963Z,46.30
2017-04-13T13:19:29.930Z,45.80
2017-04-13T13:20:29.889Z,45.60
2017-04-13T13:21:29.811Z,45.60
2017-04-13T13:22:29.815Z,45.70
2017-04-13T13:23:29.769Z,45.70
2017-04-13T13:24:30.452Z,45.80
2017-04-13T13:25:30.396Z,46.00
2017-04-13T13:26:30.507Z,45.60
2017-04-13T13:27:31.106Z,45.20
2017-04-13T13:28:31.364Z,45.40
2017-04-13T13:29:31.363Z,45.00
2017-04-13T13:30:31.455Z,44.70
2017-04-13T13:31:32.085Z,44.40
2017-04-13T13:32:32.155Z,45.50
2017-04-13T13:33:32.158Z,44.70
2017-04-13T13:34:32.474Z,44.40
2017-04-13T13:35:33.129Z,44.00
2017-04-13T13:36:32.263Z,43.80
2017-04-13T13:37:32.185Z,43.60
2017-04-13T13:38:32.299Z,43.70
2017-04-13T13:39:32.235Z,43.50
2017-04-13T13:40:32.139Z,43.80
2017-04-13T13:41:32.044Z,44.00
2017-04-13T13:42:31.935Z,44.20
2017-04-13T13:43:32.627Z,44.10
2017-04-13T13:44:32.631Z,44.10
2017-04-13T13:45:32.517Z,44.20
2017-04-13T13:46:32.434Z,44.00
2017-04-13T13:47:32.341Z,44.30
2017-04-13T13:48:32.292Z,44.20
2017-04-13T13:49:33.018Z,44.00
2017-04-13T13:50:32.959Z,42.90
2017-04-13T13:51:32.867Z,43.10
2017-04-13T13:52:32.758Z,42.80
2017-04-13T13:53:33.203Z,42.70
2017-04-13T13:54:33.223Z,43.20
2017-04-13T13:55:33.260Z,43.30
2017-04-13T13:56:33.871Z,43.50
2017-04-13T13:57:34.559Z,43.80
2017-04-13T13:58:34.478Z,43.90
2017-04-13T13:59:34.466Z,44.20
2017-04-13T14:00:34.396Z,44.20
2017-04-13T14:01:34.323Z,44.30
2017-04-13T14:02:34.237Z,43.90
2017-04-13T14:03:34.171Z,44.70
2017-04-13T14:04:34.099Z,44.70